Map

Track Data

SID SEASON NUMBER BASIN SUBBASIN NAME ISO_TIME NATURE LAT LON WMO_WIND WMO_PRES WMO_AGENCY TRACK_TYPE DIST2LAND LANDFALL IFLAG USA_AGENCY USA_ATCF_ID USA_LAT USA_LON USA_RECORD USA_STATUS USA_WIND USA_PRES USA_SSHS USA_R34_NE USA_R34_SE USA_R34_SW USA_R34_NW USA_R50_NE USA_R50_SE USA_R50_SW USA_R50_NW USA_R64_NE USA_R64_SE USA_R64_SW USA_R64_NW USA_POCI USA_ROCI USA_RMW USA_EYE TOKYO_LAT TOKYO_LON TOKYO_GRADE TOKYO_WIND TOKYO_PRES TOKYO_R50_DIR TOKYO_R50_LONG TOKYO_R50_SHORT TOKYO_R30_DIR TOKYO_R30_LONG TOKYO_R30_SHORT TOKYO_LAND CMA_LAT CMA_LON CMA_CAT CMA_WIND CMA_PRES HKO_LAT HKO_LON HKO_CAT HKO_WIND HKO_PRES NEWDELHI_LAT NEWDELHI_LON NEWDELHI_GRADE NEWDELHI_WIND NEWDELHI_PRES NEWDELHI_CI NEWDELHI_DP NEWDELHI_POCI REUNION_LAT REUNION_LON REUNION_TYPE REUNION_WIND REUNION_PRES REUNION_TNUM REUNION_CI REUNION_RMW REUNION_R34_NE REUNION_R34_SE REUNION_R34_SW REUNION_R34_NW REUNION_R50_NE REUNION_R50_SE REUNION_R50_SW REUNION_R50_NW REUNION_R64_NE REUNION_R64_SE REUNION_R64_SW REUNION_R64_NW BOM_LAT BOM_LON BOM_TYPE BOM_WIND BOM_PRES BOM_TNUM BOM_CI BOM_RMW BOM_R34_NE BOM_R34_SE BOM_R34_SW BOM_R34_NW BOM_R50_NE BOM_R50_SE BOM_R50_SW BOM_R50_NW BOM_R64_NE BOM_R64_SE BOM_R64_SW BOM_R64_NW BOM_ROCI BOM_POCI BOM_EYE BOM_POS_METHOD BOM_PRES_METHOD NADI_LAT NADI_LON NADI_CAT NADI_WIND NADI_PRES WELLINGTON_LAT WELLINGTON_LON WELLINGTON_WIND WELLINGTON_PRES DS824_LAT DS824_LON DS824_STAGE DS824_WIND DS824_PRES TD9636_LAT TD9636_LON TD9636_STAGE TD9636_WIND TD9636_PRES TD9635_LAT TD9635_LON TD9635_WIND TD9635_PRES TD9635_ROCI NEUMANN_LAT NEUMANN_LON NEUMANN_CLASS NEUMANN_WIND NEUMANN_PRES MLC_LAT MLC_LON MLC_CLASS MLC_WIND MLC_PRES USA_GUST BOM_GUST BOM_GUST_PER REUNION_GUST REUNION_GUST_PER USA_SEAHGT USA_SEARAD_NE USA_SEARAD_SE USA_SEARAD_SW USA_SEARAD_NW STORM_SPEED STORM_DIR
1909069S15060 1909 11 SI MM NOT_NAMED 1909-03-10 00:00:00 TS -14.7000 60.0000 main 651 641 _________O____ -1 -14.7000 60.0000 TC 3 0
1909069S15060 1909 11 SI MM NOT_NAMED 1909-03-10 03:00:00 TS -14.8275 60.0000 main 641 620 _________P____ -1 -14.8275 60.0000 TC 3 0
1909069S15060 1909 11 SI MM NOT_NAMED 1909-03-10 06:00:00 TS -15.0000 60.0000 main 620 599 _________O____ -1 -15.0000 60.0000 TC 4 0
1909069S15060 1909 11 SI MM NOT_NAMED 1909-03-10 09:00:00 TS -15.2425 60.0000 main 599 569 _________P____ -1 -15.2425 60.0000 TC 5 178
1909069S15060 1909 11 SI MM NOT_NAMED 1909-03-10 12:00:00 TS -15.5000 60.0000 main 569 549 _________O____ -1 -15.5000 60.0000 TC 5 0
1909069S15060 1909 11 SI MM NOT_NAMED 1909-03-10 15:00:00 TS -15.7075 60.0000 main 549 529 _________P____ -1 -15.7075 60.0000 TC 4 0
1909069S15060 1909 11 SI MM NOT_NAMED 1909-03-10 18:00:00 TS -15.9000 60.0000 main 529 509 _________O____ -1 -15.9000 60.0000 TC 4 177
1909069S15060 1909 11 SI MM NOT_NAMED 1909-03-10 21:00:00 TS -16.0925 60.0000 main 509 489 _________P____ -1 -16.0925 60.0000 TC 4 0
1909069S15060 1909 11 SI MM NOT_NAMED 1909-03-11 00:00:00 TS -16.3000 60.0000 main 489 470 _________O____ -1 -16.3000 60.0000 TC 5 183
1909069S15060 1909 11 SI MM NOT_NAMED 1909-03-11 03:00:00 TS -16.5500 59.9925 main 470 441 _________P____ -1 -16.5500 59.9925 TC 5 178
1909069S15060 1909 11 SI MM NOT_NAMED 1909-03-11 06:00:00 TS -16.8000 60.0000 main 441 423 _________O____ -1 -16.8000 60.0000 TC 5 173
1909069S15060 1909 11 SI MM NOT_NAMED 1909-03-11 09:00:00 TS -17.0075 60.0500 main 423 411 _________P____ -1 -17.0075 60.0500 TC 4 167
1909069S15060 1909 11 SI MM NOT_NAMED 1909-03-11 12:00:00 TS -17.2000 60.1000 main 411 393 _________O____ -1 -17.2000 60.1000 TC 4 173
1909069S15060 1909 11 SI MM NOT_NAMED 1909-03-11 15:00:00 TS -17.4000 60.1075 main 393 376 _________P____ -1 -17.4000 60.1075 TC 4 0
1909069S15060 1909 11 SI MM NOT_NAMED 1909-03-11 18:00:00 TS -17.6000 60.1000 main 376 360 _________O____ -1 -17.6000 60.1000 TC 4 0
1909069S15060 1909 11 SI MM NOT_NAMED 1909-03-11 21:00:00 TS -17.8000 60.1000 main 360 344 _________P____ -1 -17.8000 60.1000 TC 4 0
1909069S15060 1909 11 SI MM NOT_NAMED 1909-03-12 00:00:00 TS -18.0000 60.1000 main 344 329 _________O____ -1 -18.0000 60.1000 TC 4 0
1909069S15060 1909 11 SI MM NOT_NAMED 1909-03-12 03:00:00 TS -18.2075 60.0925 main 329 315 _________P____ -1 -18.2075 60.0925 TC 4 0
1909069S15060 1909 11 SI MM NOT_NAMED 1909-03-12 06:00:00 TS -18.4000 60.1000 main 315 308 _________O____ -1 -18.4000 60.1000 TC 4 172
1909069S15060 1909 11 SI MM NOT_NAMED 1909-03-12 09:00:00 TS -18.5575 60.1500 main 302 302 _________P____ -1 -18.5575 60.1500 TC 3 163
1909069S15060 1909 11 SI MM NOT_NAMED 1909-03-12 12:00:00 TS -18.7000 60.2000 main 305 299 _________O____ -1 -18.7000 60.2000 TC 3 171
1909069S15060 1909 11 SI MM NOT_NAMED 1909-03-12 15:00:00 TS -18.8500 60.2000 main 299 289 _________P____ -1 -18.8500 60.2000 TC 3 0
1909069S15060 1909 11 SI MM NOT_NAMED 1909-03-12 18:00:00 TS -19.0000 60.2000 main 289 284 _________O____ -1 -19.0000 60.2000 TC 3 170
1909069S15060 1909 11 SI MM NOT_NAMED 1909-03-12 21:00:00 TS -19.1200 60.2351 main 284 279 _________P____ -1 -19.1200 60.2351 TC 3 163
1909069S15060 1909 11 SI MM NOT_NAMED 1909-03-13 00:00:00 TS -19.3000 60.3000 main 284 276 _________O____ -1 -19.3000 60.3000 TC 5 164
1909069S15060 1909 11 SI MM NOT_NAMED 1909-03-13 03:00:00 TS -19.6275 60.3850 main 282 277 _________P____ -1 -19.6275 60.3850 TC 7 165
1909069S15060 1909 11 SI MM NOT_NAMED 1909-03-13 06:00:00 TS -20.0000 60.5000 main 283 282 _________O____ -1 -20.0000 60.5000 TC 7 160
1909069S15060 1909 11 SI MM NOT_NAMED 1909-03-13 09:00:00 TS -20.3300 60.6499 main 291 291 _________P____ -1 -20.3300 60.6499 TC 7 155
1909069S15060 1909 11 SI MM NOT_NAMED 1909-03-13 12:00:00 TS -20.6000 60.8000 main 314 314 _________O____ -1 -20.6000 60.8000 TC 5 152
1909069S15060 1909 11 SI MM NOT_NAMED 1909-03-13 15:00:00 TS -20.7725 60.9001 main 327 327 _________P____ -1 -20.7725 60.9001 TC 4 149
1909069S15060 1909 11 SI MM NOT_NAMED 1909-03-13 18:00:00 TS -20.9000 61.0000 main 339 339 _________O____ -1 -20.9000 61.0000 TC 4 140
1909069S15060 1909 11 SI MM NOT_NAMED 1909-03-13 21:00:00 TS -21.0575 61.1574 main 364 364 _________P____ -1 -21.0575 61.1574 TC 4 137
1909069S15060 1909 11 SI MM NOT_NAMED 1909-03-14 00:00:00 TS -21.2000 61.3000 main 377 377 _________O____ -1 -21.2000 61.3000 TC 3 143
1909069S15060 1909 11 SI MM NOT_NAMED 1909-03-14 03:00:00 TS -21.3075 61.3576 main 390 390 _________P____ -1 -21.3075 61.3576 TC 2 153
1909069S15060 1909 11 SI MM NOT_NAMED 1909-03-14 06:00:00 TS -21.4000 61.4000 main 393 393 _________O____ -1 -21.4000 61.4000 TC 2 147
1909069S15060 1909 11 SI MM NOT_NAMED 1909-03-14 09:00:00 TS -21.5000 61.4925 main 407 407 _________P____ -1 -21.5000 61.4925 TC 3 137
1909069S15060 1909 11 SI MM NOT_NAMED 1909-03-14 12:00:00 TS -21.6000 61.6000 main 420 420 _________O____ -1 -21.6000 61.6000 TC 3 135
1909069S15060 1909 11 SI MM NOT_NAMED 1909-03-14 15:00:00 TS -21.7000 61.7075 main 433 433 _________P____ -1 -21.7000 61.7075 TC 3 137
1909069S15060 1909 11 SI MM NOT_NAMED 1909-03-14 18:00:00 TS -21.8000 61.8000 main 447 447 _________O____ -1 -21.8000 61.8000 TC 2 148
1909069S15060 1909 11 SI MM NOT_NAMED 1909-03-14 21:00:00 TS -21.8774 61.8277 main 451 451 _________P____ -1 -21.8774 61.8277 TC 2 153
1909069S15060 1909 11 SI MM NOT_NAMED 1909-03-15 00:00:00 TS -22.0000 61.9000 main 465 465 _________O____ -1 -22.0000 61.9000 TC 4 143
1909069S15060 1909 11 SI MM NOT_NAMED 1909-03-15 03:00:00 TS -22.2275 62.1124 main 493 493 _________P____ -1 -22.2275 62.1124 TC 7 137
1909069S15060 1909 11 SI MM NOT_NAMED 1909-03-15 06:00:00 TS -22.5000 62.4000 main 535 535 _________O____ -1 -22.5000 62.4000 TC 8 135
1909069S15060 1909 11 SI MM NOT_NAMED 1909-03-15 09:00:00 TS -22.7575 62.6925 main 577 577 _________P____ -1 -22.7575 62.6925 TC 7 132
1909069S15060 1909 11 SI MM NOT_NAMED 1909-03-15 12:00:00 TS -23.0000 63.0000 main 614 614 _________O____ -1 -23.0000 63.0000 TC 7 129
1909069S15060 1909 11 SI MM NOT_NAMED 1909-03-15 15:00:00 TS -23.2149 63.3001 main 651 651 _________P____ -1 -23.2149 63.3001 TC 7 126
1909069S15060 1909 11 SI MM NOT_NAMED 1909-03-15 18:00:00 TS -23.4000 63.6000 main 689 689 _________O____ -1 -23.4000 63.6000 TC 6 122
1909069S15060 1909 11 SI MM NOT_NAMED 1909-03-15 21:00:00 TS -23.5576 63.8999 main 726 726 _________P____ -1 -23.5576 63.8999 TC 6 119
1909069S15060 1909 11 SI MM NOT_NAMED 1909-03-16 00:00:00 TS -23.7000 64.2000 main 758 _________O____ -1 -23.7000 64.2000 TC 6 117

About IBTrACS Database

This database is a web-friendly format of International Best Track Archive for Climate Stewardship (IBTrACS), a global best track data archive curated by NOAA dating back to 1842.

Updated: 2021-11-26